Time;durP1;ratioP1;P1;durP2;ratioP2;P2;SDS_P1;SDS_P2;PMS_P1;PMS_P2;Temp;Humidity;BMP_temperature;BMP_pressure;BME280_temperature;BME280_humidity;BME280_pressure;Samples;Min_cycle;Max_cycle;Signal;HPM_P1;HPM_P2
2022/06/06 00:00:40;;;;;;;12.52;9.50;;;;;;;;;;10282102;28;20053;-63
2022/06/06 00:05:41;;;;;;;11.48;9.68;;;;;;;;;;10281292;28;20048;-62
2022/06/06 00:10:40;;;;;;;10.77;9.88;;;;;;;;;;10281638;28;20045;-62
2022/06/06 00:15:39;;;;;;;11.32;9.98;;;;;;;;;;10280365;28;20544;-62
2022/06/06 00:20:38;;;;;;;10.63;9.73;;;;;;;;;;10280883;28;20052;-62
2022/06/06 00:25:36;;;;;;;11.20;9.55;;;;;;;;;;10263084;28;20053;-63
2022/06/06 00:30:34;;;;;;;10.65;9.65;;;;;;;;;;10280873;28;20048;-62
2022/06/06 00:35:34;;;;;;;11.45;10.35;;;;;;;;;;10280704;28;20049;-63
2022/06/06 00:40:33;;;;;;;10.38;9.50;;;;;;;;;;10280511;28;20414;-62
2022/06/06 00:45:33;;;;;;;10.23;9.15;;;;;;;;;;10279741;28;20466;-62
2022/06/06 00:50:34;;;;;;;10.05;9.15;;;;;;;;;;10279073;28;20057;-63
2022/06/06 00:55:36;;;;;;;9.75;8.82;;;;;;;;;;10279164;28;20071;-63
2022/06/06 01:00:35;;;;;;;9.95;8.98;;;;;;;;;;10275098;28;20080;-63
2022/06/06 01:05:34;;;;;;;10.07;9.20;;;;;;;;;;10275431;28;20076;-62
2022/06/06 01:10:34;;;;;;;12.40;11.20;;;;;;;;;;10275064;28;20073;-62
2022/06/06 01:15:35;;;;;;;9.98;9.07;;;;;;;;;;10278632;28;20502;-62
2022/06/06 01:20:42;;;;;;;8.35;7.55;;;;;;;;;;10279086;28;20052;-63
2022/06/06 01:25:48;;;;;;;8.68;7.82;;;;;;;;;;10278733;28;20510;-62
2022/06/06 01:30:51;;;;;;;7.97;6.80;;;;;;;;;;10277847;28;20509;-62
2022/06/06 01:35:50;;;;;;;7.18;6.13;;;;;;;;;;10278705;28;20052;-62
2022/06/06 01:40:54;;;;;;;7.22;6.53;;;;;;;;;;10277811;28;20056;-62
2022/06/06 01:45:57;;;;;;;6.20;5.60;;;;;;;;;;10277505;28;20072;-62
2022/06/06 01:50:56;;;;;;;5.85;5.30;;;;;;;;;;10277353;28;20525;-62
2022/06/06 01:55:54;;;;;;;6.70;6.00;;;;;;;;;;10277955;28;20060;-63
2022/06/06 02:00:54;;;;;;;7.03;5.40;;;;;;;;;;10277457;28;20072;-62
2022/06/06 02:05:53;;;;;;;6.82;5.85;;;;;;;;;;10277534;28;20080;-64
2022/06/06 02:10:51;;;;;;;5.82;5.30;;;;;;;;;;10276609;28;20056;-63
2022/06/06 02:15:50;;;;;;;4.32;3.92;;;;;;;;;;10276448;28;20053;-65
2022/06/06 02:20:51;;;;;;;4.03;3.72;;;;;;;;;;10259194;28;20049;-65
2022/06/06 02:25:49;;;;;;;5.25;4.60;;;;;;;;;;10276683;28;20076;-64
2022/06/06 02:30:48;;;;;;;6.90;3.70;;;;;;;;;;10276603;28;20045;-64
2022/06/06 02:35:46;;;;;;;4.57;4.15;;;;;;;;;;10276236;28;20052;-64
2022/06/06 02:40:46;;;;;;;4.57;4.18;;;;;;;;;;10274897;28;20080;-63
2022/06/06 02:45:46;;;;;;;8.25;4.07;;;;;;;;;;10275894;28;20083;-63
2022/06/06 02:50:45;;;;;;;9.30;4.25;;;;;;;;;;10275842;28;20501;-63
2022/06/06 02:55:43;;;;;;;4.95;1.60;;;;;;;;;;10274911;28;20081;-62
2022/06/06 03:00:44;;;;;;;3.67;1.45;;;;;;;;;;10275571;28;20075;-62
2022/06/06 03:05:50;;;;;;;3.10;1.38;;;;;;;;;;10275516;28;20498;-61
2022/06/06 03:10:56;;;;;;;2.03;1.27;;;;;;;;;;10275456;28;20052;-62
2022/06/06 03:21:31;;;;;;;3.60;2.35;;;;;;;;;;10274967;28;20045;-62
2022/06/06 03:26:34;;;;;;;1.67;1.20;;;;;;;;;;10283604;28;20491;-63
2022/06/06 03:31:37;;;;;;;1.57;1.33;;;;;;;;;;10283332;28;20056;-62
2022/06/06 03:36:42;;;;;;;2.60;1.67;;;;;;;;;;10283890;28;20398;-62
2022/06/06 03:41:45;;;;;;;1.35;1.20;;;;;;;;;;10282498;28;20072;-62
2022/06/06 03:46:50;;;;;;;1.50;1.40;;;;;;;;;;10281924;28;20067;-62
2022/06/06 03:52:00;;;;;;;2.60;1.60;;;;;;;;;;10281448;28;20517;-62
2022/06/06 03:57:03;;;;;;;1.75;1.65;;;;;;;;;;10283008;28;20494;-63
2022/06/06 04:02:04;;;;;;;1.88;1.70;;;;;;;;;;10282686;28;20041;-63
2022/06/06 04:07:03;;;;;;;2.78;2.58;;;;;;;;;;10282501;28;20079;-63
2022/06/06 04:12:07;;;;;;;3.80;3.00;;;;;;;;;;10281391;28;20057;-62
2022/06/06 04:17:14;;;;;;;5.65;3.67;;;;;;;;;;10280505;28;20100;-63
2022/06/06 04:22:23;;;;;;;13.45;7.72;;;;;;;;;;10281049;28;20060;-63
2022/06/06 04:27:24;;;;;;;31.58;28.23;;;;;;;;;;10279883;28;20514;-62
2022/06/06 04:32:27;;;;;;;6.75;6.25;;;;;;;;;;10279652;28;20455;-63
2022/06/06 04:37:29;;;;;;;8.93;8.13;;;;;;;;;;10279707;28;20048;-62
2022/06/06 04:42:35;;;;;;;8.50;7.80;;;;;;;;;;10279859;28;20083;-62
2022/06/06 04:47:40;;;;;;;10.02;9.02;;;;;;;;;;10280731;28;20048;-63
2022/06/06 04:52:40;;;;;;;10.02;9.18;;;;;;;;;;10274921;28;20112;-63
2022/06/06 04:57:41;;;;;;;9.57;8.68;;;;;;;;;;10275085;28;20467;-63
2022/06/06 05:02:40;;;;;;;10.15;9.15;;;;;;;;;;10273946;28;20114;-62
2022/06/06 05:07:45;;;;;;;9.00;8.20;;;;;;;;;;10272136;28;20073;-62
2022/06/06 05:12:51;;;;;;;8.05;7.35;;;;;;;;;;10274192;28;20065;-63
2022/06/06 05:17:57;;;;;;;7.10;6.45;;;;;;;;;;10274962;28;20103;-64
2022/06/06 05:23:02;;;;;;;10.10;7.10;;;;;;;;;;10277572;28;20469;-63
2022/06/06 05:28:14;;;;;;;7.15;6.55;;;;;;;;;;10277765;28;20072;-63
2022/06/06 05:33:16;;;;;;;6.60;6.00;;;;;;;;;;10272785;28;20075;-63
2022/06/06 05:38:21;;;;;;;6.38;5.88;;;;;;;;;;10271109;28;20079;-64
2022/06/06 05:43:24;;;;;;;7.00;6.30;;;;;;;;;;10275238;28;20482;-62
2022/06/06 05:48:30;;;;;;;8.27;7.32;;;;;;;;;;10275551;28;20069;-63
2022/06/06 05:53:46;;;;;;;7.70;6.93;;;;;;;;;;10257596;28;20037;-63
2022/06/06 05:58:50;;;;;;;7.85;5.90;;;;;;;;;;10277024;28;20072;-63
2022/06/06 06:04:00;;;;;;;7.32;6.47;;;;;;;;;;10275840;28;20483;-63
2022/06/06 06:09:13;;;;;;;8.90;6.95;;;;;;;;;;10275227;28;20067;-63
2022/06/06 06:14:17;;;;;;;7.45;6.75;;;;;;;;;;10273899;28;20061;-64
2022/06/06 06:19:19;;;;;;;7.97;7.05;;;;;;;;;;10274029;28;20079;-63
2022/06/06 06:24:20;;;;;;;6.85;6.20;;;;;;;;;;10275908;28;20533;-63
2022/06/06 06:29:18;;;;;;;7.55;6.78;;;;;;;;;;10274232;28;20049;-64
2022/06/06 06:34:30;;;;;;;14.63;10.52;;;;;;;;;;10275613;28;20057;-63
2022/06/06 06:39:38;;;;;;;6.95;6.32;;;;;;;;;;10275962;28;20063;-63
2022/06/06 06:44:41;;;;;;;7.65;6.95;;;;;;;;;;10275703;28;20084;-63
2022/06/06 06:49:43;;;;;;;7.97;6.68;;;;;;;;;;10275126;28;20088;-63
2022/06/06 06:54:48;;;;;;;12.73;8.13;;;;;;;;;;10275370;28;20045;-64
2022/06/06 06:59:53;;;;;;;8.65;7.75;;;;;;;;;;10274902;28;20033;-63
2022/06/06 07:10:18;;;;;;;12.50;9.02;;;;;;;;;;10274930;28;20052;-62
2022/06/06 07:15:21;;;;;;;8.18;7.47;;;;;;;;;;10274385;28;20060;-60
2022/06/06 07:20:22;;;;;;;10.45;8.15;;;;;;;;;;10275558;28;20080;-62
2022/06/06 07:25:21;;;;;;;7.53;6.78;;;;;;;;;;10273930;28;20457;-61
2022/06/06 07:30:22;;;;;;;10.52;6.65;;;;;;;;;;10274961;28;20049;-62
2022/06/06 07:35:22;;;;;;;7.90;6.57;;;;;;;;;;10274474;28;20055;-61
2022/06/06 07:40:29;;;;;;;13.82;7.35;;;;;;;;;;10274255;28;20515;-61
2022/06/06 07:45:29;;;;;;;7.43;5.70;;;;;;;;;;10273737;28;20076;-61
2022/06/06 07:50:30;;;;;;;6.07;4.72;;;;;;;;;;10274102;28;20048;-62
2022/06/06 07:55:32;;;;;;;9.25;5.00;;;;;;;;;;10274276;28;20056;-63
2022/06/06 08:00:31;;;;;;;5.68;3.78;;;;;;;;;;10274593;28;20138;-59
2022/06/06 08:05:37;;;;;;;7.90;3.70;;;;;;;;;;10274418;28;20083;-62
2022/06/06 08:10:41;;;;;;;5.30;3.67;;;;;;;;;;10277644;28;20041;-62
2022/06/06 08:16:04;;;;;;;3.65;3.08;;;;;;;;;;10281576;28;20068;-62
2022/06/06 08:21:05;;;;;;;3.30;2.83;;;;;;;;;;10281770;28;20089;-62
2022/06/06 08:26:05;;;;;;;8.68;4.65;;;;;;;;;;10281547;28;20087;-62
2022/06/06 08:31:04;;;;;;;4.65;4.25;;;;;;;;;;10280937;28;20033;-61
2022/06/06 08:36:12;;;;;;;3.83;3.45;;;;;;;;;;10280053;28;20053;-62
2022/06/06 08:41:31;;;;;;;11.18;3.15;;;;;;;;;;10262987;28;20477;-62
2022/06/06 08:46:40;;;;;;;5.50;3.28;;;;;;;;;;10262256;28;20484;-62
2022/06/06 08:51:49;;;;;;;7.75;2.92;;;;;;;;;;10280324;28;20083;-62
2022/06/06 08:57:02;;;;;;;18.70;3.97;;;;;;;;;;10279442;28;20057;-60
2022/06/06 09:02:13;;;;;;;3.17;2.50;;;;;;;;;;10277107;28;20080;-61
2022/06/06 09:07:29;;;;;;;3.42;2.75;;;;;;;;;;10280028;28;20529;-61
2022/06/06 09:12:40;;;;;;;8.63;3.25;;;;;;;;;;10279066;28;20045;-62
2022/06/06 09:17:53;;;;;;;3.63;2.72;;;;;;;;;;10280001;28;20132;-62
2022/06/06 09:23:06;;;;;;;5.45;2.47;;;;;;;;;;10278943;28;20053;-61
2022/06/06 09:28:34;;;;;;;3.63;2.75;;;;;;;;;;10279229;28;20088;-60
2022/06/06 09:33:47;;;;;;;3.40;2.50;;;;;;;;;;10278698;28;20062;-62
2022/06/06 09:38:53;;;;;;;6.28;2.15;;;;;;;;;;10279168;28;20049;-61
2022/06/06 09:43:56;;;;;;;5.15;1.90;;;;;;;;;;10278034;28;20041;-61
2022/06/06 09:49:15;;;;;;;2.47;2.05;;;;;;;;;;10279006;28;20073;-62
2022/06/06 10:00:02;;;;;;;6.15;2.60;;;;;;;;;;10277738;28;20044;-61
2022/06/06 10:05:16;;;;;;;3.60;2.58;;;;;;;;;;10277432;28;20467;-62
2022/06/06 10:10:37;;;;;;;8.10;2.53;;;;;;;;;;10277025;28;20049;-61
2022/06/06 10:15:45;;;;;;;7.93;3.92;;;;;;;;;;10276939;28;20052;-62
2022/06/06 10:21:10;;;;;;;3.60;3.30;;;;;;;;;;10276931;28;20053;-62
2022/06/06 10:26:17;;;;;;;3.25;2.40;;;;;;;;;;10276379;28;20099;-62
2022/06/06 10:31:24;;;;;;;6.72;2.97;;;;;;;;;;10276238;28;20055;-62
2022/06/06 10:36:36;;;;;;;2.97;2.20;;;;;;;;;;10275727;28;20052;-62
2022/06/06 10:41:46;;;;;;;5.13;2.65;;;;;;;;;;10276282;28;20044;-62
2022/06/06 10:46:53;;;;;;;5.20;4.13;;;;;;;;;;10276123;28;20068;-61
2022/06/06 10:52:09;;;;;;;3.47;1.90;;;;;;;;;;10275934;28;20410;-61
2022/06/06 10:57:28;;;;;;;3.67;2.55;;;;;;;;;;10275617;28;20045;-62
2022/06/06 11:02:46;;;;;;;4.20;3.80;;;;;;;;;;10275905;28;20048;-61
2022/06/06 11:08:00;;;;;;;6.63;3.47;;;;;;;;;;10257068;28;20533;-62
2022/06/06 11:13:16;;;;;;;2.30;1.92;;;;;;;;;;10275914;28;20045;-63
2022/06/06 11:18:27;;;;;;;3.95;3.03;;;;;;;;;;10230687;28;20391;-62
2022/06/06 11:23:30;;;;;;;5.47;3.28;;;;;;;;;;10234459;28;20088;-61
2022/06/06 11:28:38;;;;;;;5.40;4.50;;;;;;;;;;10235076;28;20117;-62
2022/06/06 11:33:51;;;;;;;4.97;2.13;;;;;;;;;;10235061;28;20041;-62
2022/06/06 11:39:13;;;;;;;7.78;6.22;;;;;;;;;;10235027;28;20498;-63
2022/06/06 11:44:14;;;;;;;3.10;2.75;;;;;;;;;;10237566;28;20052;-62
2022/06/06 11:49:37;;;;;;;8.10;3.97;;;;;;;;;;10242079;28;20085;-62
2022/06/06 11:54:53;;;;;;;2.38;2.17;;;;;;;;;;10240900;28;20061;-62
2022/06/06 12:00:03;;;;;;;6.32;3.15;;;;;;;;;;10240873;28;20064;-62
2022/06/06 12:05:20;;;;;;;4.53;2.67;;;;;;;;;;10240774;28;20085;-61
2022/06/06 12:10:21;;;;;;;5.45;2.35;;;;;;;;;;10241176;28;20077;-62
2022/06/06 12:15:37;;;;;;;6.55;2.35;;;;;;;;;;10224763;28;20045;-62
2022/06/06 12:20:51;;;;;;;7.85;3.45;;;;;;;;;;10280992;28;20537;-63
2022/06/06 12:25:56;;;;;;;5.60;3.10;;;;;;;;;;10280204;28;20088;-63
2022/06/06 12:31:03;;;;;;;3.58;3.25;;;;;;;;;;10280667;28;20274;-62
2022/06/06 12:36:09;;;;;;;9.05;2.60;;;;;;;;;;10280411;28;20084;-62
2022/06/06 12:41:14;;;;;;;2.83;2.20;;;;;;;;;;10281060;28;20045;-62
2022/06/06 12:46:22;;;;;;;4.03;3.30;;;;;;;;;;10279756;28;20056;-62
2022/06/06 12:51:27;;;;;;;7.20;2.83;;;;;;;;;;10280458;28;20079;-61
2022/06/06 12:56:38;;;;;;;5.10;2.40;;;;;;;;;;10280082;28;20494;-61
2022/06/06 13:01:42;;;;;;;3.30;2.47;;;;;;;;;;10280098;28;20410;-62
2022/06/06 13:06:46;;;;;;;2.30;2.05;;;;;;;;;;10279521;28;20087;-62
2022/06/06 13:11:54;;;;;;;3.20;2.08;;;;;;;;;;10280031;28;20402;-61
2022/06/06 13:16:59;;;;;;;5.90;3.03;;;;;;;;;;10260617;28;20060;-61
2022/06/06 13:22:06;;;;;;;2.55;2.33;;;;;;;;;;10279461;28;20415;-60
2022/06/06 13:27:17;;;;;;;6.50;2.97;;;;;;;;;;10278700;28;20077;-62
2022/06/06 13:32:28;;;;;;;5.97;2.88;;;;;;;;;;10279012;28;20041;-62
2022/06/06 13:37:36;;;;;;;5.35;2.70;;;;;;;;;;10278372;28;20045;-62
2022/06/06 13:42:56;;;;;;;5.57;3.10;;;;;;;;;;10259988;28;20182;-61
2022/06/06 13:48:05;;;;;;;6.90;2.45;;;;;;;;;;10259669;28;20059;-61
2022/06/06 13:53:14;;;;;;;7.38;4.88;;;;;;;;;;10277342;28;20080;-61
2022/06/06 13:58:34;;;;;;;4.18;2.80;;;;;;;;;;10278226;28;20041;-62
2022/06/06 14:03:44;;;;;;;7.85;4.15;;;;;;;;;;10272333;28;20061;-62
2022/06/06 14:08:50;;;;;;;5.35;3.05;;;;;;;;;;10275786;28;20478;-63
2022/06/06 14:13:49;;;;;;;5.90;3.65;;;;;;;;;;10277806;28;20041;-61
2022/06/06 14:18:52;;;;;;;3.67;3.00;;;;;;;;;;10276925;28;20080;-62
2022/06/06 14:23:52;;;;;;;6.00;3.22;;;;;;;;;;10276314;28;20052;-63
2022/06/06 14:29:04;;;;;;;6.10;2.38;;;;;;;;;;10277052;28;20496;-61
2022/06/06 14:34:16;;;;;;;4.20;3.50;;;;;;;;;;10276829;28;20044;-62
2022/06/06 14:39:23;;;;;;;4.55;3.05;;;;;;;;;;10276888;28;20044;-62
2022/06/06 14:44:29;;;;;;;6.10;3.55;;;;;;;;;;10274867;28;20045;-61
2022/06/06 14:49:29;;;;;;;6.10;4.30;;;;;;;;;;10275270;28;20076;-62
2022/06/06 14:54:29;;;;;;;11.10;5.05;;;;;;;;;;10275348;28;20049;-62
2022/06/06 14:59:34;;;;;;;6.97;4.82;;;;;;;;;;10275260;28;20060;-62
2022/06/06 15:04:32;;;;;;;9.00;4.78;;;;;;;;;;10274040;28;20057;-60
2022/06/06 15:09:37;;;;;;;7.65;5.05;;;;;;;;;;10275035;28;20092;-61
2022/06/06 15:14:36;;;;;;;6.80;3.78;;;;;;;;;;10274509;28;20045;-61
2022/06/06 15:19:39;;;;;;;6.50;5.78;;;;;;;;;;10274492;28;20052;-61
2022/06/06 15:24:43;;;;;;;8.38;5.40;;;;;;;;;;10274804;28;20454;-62
2022/06/06 15:29:44;;;;;;;11.50;7.90;;;;;;;;;;10274295;28;20088;-62
2022/06/06 15:34:50;;;;;;;13.43;4.93;;;;;;;;;;10274433;28;20048;-62
2022/06/06 15:39:56;;;;;;;8.05;5.40;;;;;;;;;;10274667;28;20048;-61
2022/06/06 15:45:01;;;;;;;8.68;5.85;;;;;;;;;;10273725;28;20069;-61
2022/06/06 15:50:22;;;;;;;4.85;3.90;;;;;;;;;;10273955;28;20081;-61
2022/06/06 15:55:27;;;;;;;2.88;2.40;;;;;;;;;;10268784;28;20052;-61
2022/06/06 16:00:28;;;;;;;5.03;3.88;;;;;;;;;;10273380;28;20447;-61
2022/06/06 16:05:29;;;;;;;7.28;4.63;;;;;;;;;;10274049;28;20049;-61
2022/06/06 16:10:32;;;;;;;7.68;4.50;;;;;;;;;;10273731;28;20505;-61
2022/06/06 16:15:34;;;;;;;6.97;4.65;;;;;;;;;;10273386;28;20056;-62
2022/06/06 16:20:34;;;;;;;5.22;3.53;;;;;;;;;;10273660;28;20084;-62
2022/06/06 16:25:43;;;;;;;6.40;2.53;;;;;;;;;;10255428;28;20506;-62
2022/06/06 16:30:44;;;;;;;4.75;2.85;;;;;;;;;;10273742;28;20080;-61
2022/06/06 16:35:44;;;;;;;10.77;8.77;;;;;;;;;;10279414;28;20545;-60
2022/06/06 16:41:00;;;;;;;9.95;5.10;;;;;;;;;;10260574;28;20041;-61
2022/06/06 16:51:36;;;;;;;6.72;2.50;;;;;;;;;;10277163;28;20077;-62
2022/06/06 16:56:40;;;;;;;10.45;2.63;;;;;;;;;;10277986;28;20517;-63
2022/06/06 17:01:44;;;;;;;2.40;2.20;;;;;;;;;;10278269;28;20118;-61
2022/06/06 17:12:04;;;;;;;4.20;3.40;;;;;;;;;;10274158;28;20080;-61
2022/06/06 17:17:12;;;;;;;6.13;3.03;;;;;;;;;;10276712;28;20485;-61
2022/06/06 17:22:12;;;;;;;2.58;2.38;;;;;;;;;;10275782;28;20084;-61
2022/06/06 17:27:18;;;;;;;3.17;2.65;;;;;;;;;;10277947;28;20403;-61
2022/06/06 17:32:22;;;;;;;4.35;3.22;;;;;;;;;;10278491;28;20065;-62
2022/06/06 17:37:35;;;;;;;4.70;3.08;;;;;;;;;;10275630;28;20424;-61
2022/06/06 17:42:35;;;;;;;4.23;3.50;;;;;;;;;;10276516;28;20056;-61
2022/06/06 17:47:39;;;;;;;6.70;2.92;;;;;;;;;;10277154;28;20041;-61
2022/06/06 17:52:58;;;;;;;6.13;3.05;;;;;;;;;;10275308;28;20072;-62
2022/06/06 17:58:00;;;;;;;7.82;2.80;;;;;;;;;;10268461;28;20056;-62
2022/06/06 18:03:25;;;;;;;4.10;2.90;;;;;;;;;;10274092;28;20063;-60
2022/06/06 18:08:39;;;;;;;6.35;2.78;;;;;;;;;;10230476;28;20103;-61
2022/06/06 18:13:41;;;;;;;6.43;2.83;;;;;;;;;;10273428;28;20077;-61
2022/06/06 18:18:41;;;;;;;9.25;2.65;;;;;;;;;;10274549;28;20373;-60
2022/06/06 18:23:52;;;;;;;8.32;3.33;;;;;;;;;;10276227;28;20049;-62
2022/06/06 18:28:52;;;;;;;4.00;2.90;;;;;;;;;;10274830;28;20076;-62
2022/06/06 18:33:58;;;;;;;5.72;3.70;;;;;;;;;;10268303;28;20045;-61
2022/06/06 18:38:58;;;;;;;11.95;6.55;;;;;;;;;;10275993;28;20052;-61
2022/06/06 18:43:57;;;;;;;10.60;7.55;;;;;;;;;;10276471;28;20044;-61
2022/06/06 18:49:03;;;;;;;9.88;8.60;;;;;;;;;;10275199;28;20080;-61
2022/06/06 18:54:06;;;;;;;9.55;8.38;;;;;;;;;;10275545;28;20083;-61
2022/06/06 18:59:06;;;;;;;6.30;4.33;;;;;;;;;;10275820;28;20033;-60
2022/06/06 19:04:08;;;;;;;5.15;4.63;;;;;;;;;;10275008;28;20045;-60
2022/06/06 19:09:21;;;;;;;6.70;3.03;;;;;;;;;;10273240;28;20076;-60
2022/06/06 19:14:22;;;;;;;6.03;3.38;;;;;;;;;;10274512;28;20086;-60
2022/06/06 19:19:22;;;;;;;7.53;3.35;;;;;;;;;;10274246;28;20075;-61
2022/06/06 19:24:24;;;;;;;12.32;7.50;;;;;;;;;;10273382;28;20459;-60
2022/06/06 19:29:25;;;;;;;7.13;4.10;;;;;;;;;;10274220;28;20065;-61
2022/06/06 19:34:23;;;;;;;8.50;3.25;;;;;;;;;;10273654;28;20513;-59
2022/06/06 19:39:31;;;;;;;11.02;2.70;;;;;;;;;;10268235;28;20064;-61
2022/06/06 19:44:30;;;;;;;7.47;2.88;;;;;;;;;;10273093;28;20068;-60
2022/06/06 19:49:29;;;;;;;3.15;2.63;;;;;;;;;;10272249;28;20079;-60
2022/06/06 19:54:32;;;;;;;8.10;5.40;;;;;;;;;;10273499;28;20072;-61
2022/06/06 19:59:33;;;;;;;8.07;4.43;;;;;;;;;;10273926;28;20079;-60
2022/06/06 20:04:33;;;;;;;3.72;3.15;;;;;;;;;;10274074;28;20096;-60
2022/06/06 20:09:35;;;;;;;7.22;3.00;;;;;;;;;;10281014;28;20072;-59
2022/06/06 20:14:43;;;;;;;8.48;2.95;;;;;;;;;;10282060;28;20465;-61
2022/06/06 20:19:44;;;;;;;6.75;3.58;;;;;;;;;;10263140;28;20060;-63
2022/06/06 20:24:45;;;;;;;5.40;4.25;;;;;;;;;;10281393;28;20049;-62
2022/06/06 20:29:44;;;;;;;7.50;3.75;;;;;;;;;;10281281;28;20166;-61
2022/06/06 20:34:45;;;;;;;8.98;3.90;;;;;;;;;;10280026;28;20091;-61
2022/06/06 20:39:46;;;;;;;3.50;3.20;;;;;;;;;;10279619;28;20058;-60
2022/06/06 20:44:46;;;;;;;8.80;2.95;;;;;;;;;;10280473;28;20056;-60
2022/06/06 20:49:49;;;;;;;4.50;2.78;;;;;;;;;;10279030;28;20081;-60
2022/06/06 20:54:50;;;;;;;5.10;3.47;;;;;;;;;;10279935;28;20502;-60
2022/06/06 20:59:49;;;;;;;7.35;2.55;;;;;;;;;;10279374;28;20053;-60
2022/06/06 21:04:47;;;;;;;3.78;2.38;;;;;;;;;;10279402;28;20075;-60
2022/06/06 21:09:45;;;;;;;3.97;3.47;;;;;;;;;;10278847;28;20076;-61
2022/06/06 21:14:46;;;;;;;6.10;2.67;;;;;;;;;;10276447;28;20075;-61
2022/06/06 21:19:45;;;;;;;7.68;3.58;;;;;;;;;;10259765;28;20064;-61
2022/06/06 21:24:47;;;;;;;4.47;4.03;;;;;;;;;;10279657;28;20048;-61
2022/06/06 21:29:47;;;;;;;9.15;4.50;;;;;;;;;;10278592;28;20502;-60
2022/06/06 21:34:45;;;;;;;7.20;4.85;;;;;;;;;;10279223;28;20517;-61
2022/06/06 21:39:43;;;;;;;6.20;5.38;;;;;;;;;;10278711;28;20067;-61
2022/06/06 21:44:42;;;;;;;7.93;6.18;;;;;;;;;;10279048;28;20079;-61
2022/06/06 21:49:41;;;;;;;7.35;6.22;;;;;;;;;;10278510;28;20088;-60
2022/06/06 21:54:40;;;;;;;6.57;5.05;;;;;;;;;;10278516;28;20053;-60
2022/06/06 21:59:39;;;;;;;8.50;5.20;;;;;;;;;;10278173;28;20049;-60
2022/06/06 22:04:38;;;;;;;4.53;4.07;;;;;;;;;;10278253;28;20438;-60
2022/06/06 22:09:38;;;;;;;5.57;4.00;;;;;;;;;;10277741;28;20079;-61
2022/06/06 22:14:37;;;;;;;4.28;3.88;;;;;;;;;;10276877;28;20497;-60
2022/06/06 22:19:36;;;;;;;11.07;4.43;;;;;;;;;;10277808;28;20410;-61
2022/06/06 22:24:57;;;;;;;7.80;4.82;;;;;;;;;;10277348;28;20060;-60
2022/06/06 22:29:55;;;;;;;7.07;4.60;;;;;;;;;;10274141;28;20095;-61
2022/06/06 22:34:55;;;;;;;5.68;4.68;;;;;;;;;;10276831;28;20067;-60
2022/06/06 22:39:54;;;;;;;7.72;5.13;;;;;;;;;;10276684;28;20033;-59
2022/06/06 22:44:56;;;;;;;5.25;4.75;;;;;;;;;;10275700;28;20079;-61
2022/06/06 22:49:54;;;;;;;4.93;3.70;;;;;;;;;;10275697;28;20072;-61
2022/06/06 22:54:53;;;;;;;5.38;3.88;;;;;;;;;;10276428;28;20044;-61
2022/06/06 22:59:51;;;;;;;5.72;3.75;;;;;;;;;;10275451;28;20049;-61
2022/06/06 23:04:56;;;;;;;4.18;3.30;;;;;;;;;;10274142;28;20045;-61
2022/06/06 23:09:54;;;;;;;17.40;3.78;;;;;;;;;;10274837;28;20091;-61
2022/06/06 23:14:53;;;;;;;5.80;3.53;;;;;;;;;;10275821;28;20049;-62
2022/06/06 23:19:51;;;;;;;6.00;2.72;;;;;;;;;;10275965;28;20088;-61
2022/06/06 23:24:51;;;;;;;3.13;2.75;;;;;;;;;;10274681;28;20552;-61
2022/06/06 23:29:49;;;;;;;3.90;2.75;;;;;;;;;;10256013;28;20056;-61
2022/06/06 23:34:47;;;;;;;4.63;2.80;;;;;;;;;;10275383;28;20068;-60
2022/06/06 23:39:48;;;;;;;3.45;2.88;;;;;;;;;;10277498;28;20131;-61
2022/06/06 23:50:07;;;;;;;3.95;2.85;;;;;;;;;;10282600;28;20225;-61
2022/06/06 23:55:06;;;;;;;6.00;3.55;;;;;;;;;;10282354;28;20053;-61
